sensor_id;sensor_type;location;lat;lon;timestamp;P1;durP1;ratioP1;P2;durP2;ratioP2
20711;SDS011;10517;50.742;4.224;2023-04-03T00:01:20;11.67;;;6.10;;
20711;SDS011;10517;50.742;4.224;2023-04-03T00:03:46;11.60;;;6.57;;
20711;SDS011;10517;50.742;4.224;2023-04-03T00:06:11;11.53;;;5.30;;
20711;SDS011;10517;50.742;4.224;2023-04-03T00:08:37;11.90;;;5.13;;
20711;SDS011;10517;50.742;4.224;2023-04-03T00:11:04;8.60;;;5.07;;
20711;SDS011;10517;50.742;4.224;2023-04-03T00:13:30;15.13;;;6.30;;
20711;SDS011;10517;50.742;4.224;2023-04-03T00:15:56;9.90;;;5.53;;
20711;SDS011;10517;50.742;4.224;2023-04-03T00:18:22;12.40;;;5.87;;
20711;SDS011;10517;50.742;4.224;2023-04-03T00:20:47;16.60;;;7.00;;
20711;SDS011;10517;50.742;4.224;2023-04-03T00:23:13;9.13;;;6.03;;
20711;SDS011;10517;50.742;4.224;2023-04-03T00:25:39;12.77;;;6.03;;
20711;SDS011;10517;50.742;4.224;2023-04-03T00:28:05;8.60;;;5.30;;
20711;SDS011;10517;50.742;4.224;2023-04-03T00:30:31;15.17;;;5.50;;
20711;SDS011;10517;50.742;4.224;2023-04-03T00:32:57;13.17;;;6.60;;
20711;SDS011;10517;50.742;4.224;2023-04-03T00:35:23;10.93;;;6.00;;
20711;SDS011;10517;50.742;4.224;2023-04-03T00:37:53;12.73;;;6.63;;
20711;SDS011;10517;50.742;4.224;2023-04-03T00:40:21;13.23;;;6.27;;
20711;SDS011;10517;50.742;4.224;2023-04-03T00:42:48;11.63;;;5.03;;
20711;SDS011;10517;50.742;4.224;2023-04-03T00:47:42;12.57;;;6.23;;
20711;SDS011;10517;50.742;4.224;2023-04-03T00:50:09;11.10;;;6.00;;
20711;SDS011;10517;50.742;4.224;2023-04-03T00:52:35;11.23;;;6.90;;
20711;SDS011;10517;50.742;4.224;2023-04-03T00:55:04;10.53;;;5.40;;
20711;SDS011;10517;50.742;4.224;2023-04-03T00:57:32;11.20;;;5.97;;
20711;SDS011;10517;50.742;4.224;2023-04-03T01:00:04;14.97;;;5.57;;
20711;SDS011;10517;50.742;4.224;2023-04-03T01:02:32;7.20;;;4.87;;
20711;SDS011;10517;50.742;4.224;2023-04-03T01:04:58;10.47;;;4.63;;
20711;SDS011;10517;50.742;4.224;2023-04-03T01:07:25;13.87;;;6.30;;
20711;SDS011;10517;50.742;4.224;2023-04-03T01:09:55;7.80;;;4.87;;
20711;SDS011;10517;50.742;4.224;2023-04-03T01:12:24;8.43;;;4.30;;
20711;SDS011;10517;50.742;4.224;2023-04-03T01:15:02;9.90;;;5.73;;
20711;SDS011;10517;50.742;4.224;2023-04-03T01:17:46;9.80;;;5.40;;
20711;SDS011;10517;50.742;4.224;2023-04-03T01:25:35;12.00;;;5.10;;
20711;SDS011;10517;50.742;4.224;2023-04-03T01:28:05;13.10;;;5.60;;
20711;SDS011;10517;50.742;4.224;2023-04-03T01:30:34;9.93;;;5.50;;
20711;SDS011;10517;50.742;4.224;2023-04-03T01:33:05;9.87;;;4.83;;
20711;SDS011;10517;50.742;4.224;2023-04-03T01:35:31;10.73;;;4.73;;
20711;SDS011;10517;50.742;4.224;2023-04-03T01:37:56;6.57;;;4.63;;
20711;SDS011;10517;50.742;4.224;2023-04-03T01:40:22;8.07;;;4.63;;
20711;SDS011;10517;50.742;4.224;2023-04-03T01:42:47;6.90;;;3.90;;
20711;SDS011;10517;50.742;4.224;2023-04-03T01:45:13;10.67;;;4.60;;
20711;SDS011;10517;50.742;4.224;2023-04-03T01:47:38;7.77;;;4.10;;
20711;SDS011;10517;50.742;4.224;2023-04-03T01:50:04;8.67;;;4.67;;
20711;SDS011;10517;50.742;4.224;2023-04-03T01:52:30;7.23;;;3.80;;
20711;SDS011;10517;50.742;4.224;2023-04-03T01:54:56;9.87;;;3.80;;
20711;SDS011;10517;50.742;4.224;2023-04-03T01:57:21;6.33;;;3.97;;
20711;SDS011;10517;50.742;4.224;2023-04-03T01:59:47;9.77;;;3.97;;
20711;SDS011;10517;50.742;4.224;2023-04-03T02:02:12;6.67;;;3.63;;
20711;SDS011;10517;50.742;4.224;2023-04-03T02:04:39;6.90;;;4.07;;
20711;SDS011;10517;50.742;4.224;2023-04-03T02:07:05;5.83;;;3.37;;
20711;SDS011;10517;50.742;4.224;2023-04-03T02:09:31;8.37;;;3.67;;
20711;SDS011;10517;50.742;4.224;2023-04-03T02:11:56;9.90;;;4.23;;
20711;SDS011;10517;50.742;4.224;2023-04-03T02:14:22;6.47;;;4.00;;
20711;SDS011;10517;50.742;4.224;2023-04-03T02:16:48;5.13;;;3.30;;
20711;SDS011;10517;50.742;4.224;2023-04-03T02:19:14;6.37;;;3.63;;
20711;SDS011;10517;50.742;4.224;2023-04-03T02:21:40;11.23;;;4.33;;
20711;SDS011;10517;50.742;4.224;2023-04-03T02:24:06;8.67;;;4.03;;
20711;SDS011;10517;50.742;4.224;2023-04-03T02:26:32;6.10;;;2.93;;
20711;SDS011;10517;50.742;4.224;2023-04-03T02:28:57;5.10;;;3.60;;
20711;SDS011;10517;50.742;4.224;2023-04-03T02:31:23;6.83;;;3.10;;
20711;SDS011;10517;50.742;4.224;2023-04-03T02:33:49;11.13;;;3.90;;
20711;SDS011;10517;50.742;4.224;2023-04-03T02:36:15;5.27;;;3.20;;
20711;SDS011;10517;50.742;4.224;2023-04-03T02:38:40;7.60;;;3.03;;
20711;SDS011;10517;50.742;4.224;2023-04-03T02:41:07;5.37;;;4.13;;
20711;SDS011;10517;50.742;4.224;2023-04-03T02:43:34;5.87;;;3.87;;
20711;SDS011;10517;50.742;4.224;2023-04-03T02:46:00;5.97;;;3.47;;
20711;SDS011;10517;50.742;4.224;2023-04-03T02:48:26;7.57;;;3.57;;
20711;SDS011;10517;50.742;4.224;2023-04-03T02:50:51;5.00;;;3.60;;
20711;SDS011;10517;50.742;4.224;2023-04-03T02:53:17;4.80;;;3.33;;
20711;SDS011;10517;50.742;4.224;2023-04-03T02:55:43;8.83;;;3.73;;
20711;SDS011;10517;50.742;4.224;2023-04-03T02:58:10;5.43;;;4.03;;
20711;SDS011;10517;50.742;4.224;2023-04-03T03:00:35;4.93;;;2.63;;
20711;SDS011;10517;50.742;4.224;2023-04-03T03:03:01;4.67;;;3.07;;
20711;SDS011;10517;50.742;4.224;2023-04-03T03:05:27;9.57;;;3.30;;
20711;SDS011;10517;50.742;4.224;2023-04-03T03:07:53;5.17;;;3.53;;
20711;SDS011;10517;50.742;4.224;2023-04-03T03:10:19;5.63;;;3.77;;
20711;SDS011;10517;50.742;4.224;2023-04-03T03:12:45;7.47;;;3.97;;
20711;SDS011;10517;50.742;4.224;2023-04-03T03:15:10;4.67;;;3.47;;
20711;SDS011;10517;50.742;4.224;2023-04-03T03:17:36;12.43;;;3.77;;
20711;SDS011;10517;50.742;4.224;2023-04-03T03:20:03;10.97;;;4.33;;
20711;SDS011;10517;50.742;4.224;2023-04-03T03:22:29;8.53;;;3.80;;
20711;SDS011;10517;50.742;4.224;2023-04-03T03:24:55;6.73;;;3.23;;
20711;SDS011;10517;50.742;4.224;2023-04-03T03:27:20;5.33;;;3.37;;
20711;SDS011;10517;50.742;4.224;2023-04-03T03:29:46;3.57;;;2.77;;
20711;SDS011;10517;50.742;4.224;2023-04-03T03:32:12;9.47;;;3.67;;
20711;SDS011;10517;50.742;4.224;2023-04-03T03:34:37;4.87;;;3.10;;
20711;SDS011;10517;50.742;4.224;2023-04-03T03:37:03;9.77;;;4.00;;
20711;SDS011;10517;50.742;4.224;2023-04-03T03:39:29;9.17;;;3.83;;
20711;SDS011;10517;50.742;4.224;2023-04-03T03:41:55;3.73;;;3.00;;
20711;SDS011;10517;50.742;4.224;2023-04-03T03:44:20;8.17;;;2.93;;
20711;SDS011;10517;50.742;4.224;2023-04-03T03:46:46;5.10;;;3.00;;
20711;SDS011;10517;50.742;4.224;2023-04-03T03:49:12;6.33;;;3.33;;
20711;SDS011;10517;50.742;4.224;2023-04-03T03:51:38;14.17;;;3.60;;
20711;SDS011;10517;50.742;4.224;2023-04-03T03:54:04;3.97;;;3.17;;
20711;SDS011;10517;50.742;4.224;2023-04-03T03:56:30;5.60;;;3.53;;
20711;SDS011;10517;50.742;4.224;2023-04-03T03:58:56;4.30;;;3.23;;
20711;SDS011;10517;50.742;4.224;2023-04-03T04:01:22;4.83;;;3.60;;
20711;SDS011;10517;50.742;4.224;2023-04-03T04:03:48;12.33;;;3.90;;
20711;SDS011;10517;50.742;4.224;2023-04-03T04:06:14;5.07;;;3.20;;
20711;SDS011;10517;50.742;4.224;2023-04-03T04:08:40;6.77;;;2.90;;
20711;SDS011;10517;50.742;4.224;2023-04-03T04:11:06;5.27;;;3.27;;
20711;SDS011;10517;50.742;4.224;2023-04-03T04:13:32;8.90;;;2.67;;
20711;SDS011;10517;50.742;4.224;2023-04-03T04:15:58;6.73;;;2.90;;
20711;SDS011;10517;50.742;4.224;2023-04-03T04:18:23;8.30;;;3.33;;
20711;SDS011;10517;50.742;4.224;2023-04-03T04:20:49;5.27;;;3.37;;
20711;SDS011;10517;50.742;4.224;2023-04-03T04:23:16;5.07;;;3.37;;
20711;SDS011;10517;50.742;4.224;2023-04-03T04:25:44;6.60;;;3.97;;
20711;SDS011;10517;50.742;4.224;2023-04-03T04:28:10;5.57;;;3.47;;
20711;SDS011;10517;50.742;4.224;2023-04-03T04:30:36;4.83;;;2.87;;
20711;SDS011;10517;50.742;4.224;2023-04-03T04:33:01;4.47;;;3.10;;
20711;SDS011;10517;50.742;4.224;2023-04-03T04:35:27;14.53;;;3.33;;
20711;SDS011;10517;50.742;4.224;2023-04-03T04:37:53;7.17;;;2.60;;
20711;SDS011;10517;50.742;4.224;2023-04-03T04:40:18;5.93;;;3.60;;
20711;SDS011;10517;50.742;4.224;2023-04-03T04:42:44;5.43;;;3.43;;
20711;SDS011;10517;50.742;4.224;2023-04-03T04:45:10;7.10;;;3.53;;
20711;SDS011;10517;50.742;4.224;2023-04-03T04:47:35;5.57;;;3.70;;
20711;SDS011;10517;50.742;4.224;2023-04-03T04:50:01;5.83;;;4.10;;
20711;SDS011;10517;50.742;4.224;2023-04-03T04:52:27;5.17;;;3.53;;
20711;SDS011;10517;50.742;4.224;2023-04-03T04:54:52;5.20;;;3.63;;
20711;SDS011;10517;50.742;4.224;2023-04-03T04:57:18;7.43;;;3.70;;
20711;SDS011;10517;50.742;4.224;2023-04-03T04:59:43;9.87;;;4.47;;
20711;SDS011;10517;50.742;4.224;2023-04-03T05:02:09;11.53;;;4.70;;
20711;SDS011;10517;50.742;4.224;2023-04-03T05:04:34;11.00;;;4.73;;
20711;SDS011;10517;50.742;4.224;2023-04-03T05:07:00;7.27;;;4.00;;
20711;SDS011;10517;50.742;4.224;2023-04-03T05:09:26;11.03;;;5.57;;
20711;SDS011;10517;50.742;4.224;2023-04-03T05:11:51;10.80;;;5.63;;
20711;SDS011;10517;50.742;4.224;2023-04-03T05:14:17;13.50;;;5.30;;
20711;SDS011;10517;50.742;4.224;2023-04-03T05:16:43;6.70;;;4.23;;
20711;SDS011;10517;50.742;4.224;2023-04-03T05:19:08;12.70;;;4.30;;
20711;SDS011;10517;50.742;4.224;2023-04-03T05:21:34;13.80;;;4.60;;
20711;SDS011;10517;50.742;4.224;2023-04-03T05:23:59;9.43;;;5.30;;
20711;SDS011;10517;50.742;4.224;2023-04-03T05:26:27;8.83;;;4.57;;
20711;SDS011;10517;50.742;4.224;2023-04-03T05:28:53;13.00;;;4.23;;
20711;SDS011;10517;50.742;4.224;2023-04-03T05:31:19;8.60;;;4.17;;
20711;SDS011;10517;50.742;4.224;2023-04-03T05:33:45;4.50;;;3.23;;
20711;SDS011;10517;50.742;4.224;2023-04-03T05:36:11;7.33;;;4.00;;
20711;SDS011;10517;50.742;4.224;2023-04-03T05:38:37;10.33;;;4.17;;
20711;SDS011;10517;50.742;4.224;2023-04-03T05:41:03;10.33;;;3.93;;
20711;SDS011;10517;50.742;4.224;2023-04-03T05:43:29;8.20;;;3.57;;
20711;SDS011;10517;50.742;4.224;2023-04-03T05:45:55;4.83;;;3.30;;
20711;SDS011;10517;50.742;4.224;2023-04-03T05:48:20;7.67;;;3.60;;
20711;SDS011;10517;50.742;4.224;2023-04-03T05:50:46;6.97;;;3.80;;
20711;SDS011;10517;50.742;4.224;2023-04-03T05:53:14;9.77;;;4.33;;
20711;SDS011;10517;50.742;4.224;2023-04-03T05:55:44;7.07;;;3.70;;
20711;SDS011;10517;50.742;4.224;2023-04-03T05:58:10;9.97;;;4.00;;
20711;SDS011;10517;50.742;4.224;2023-04-03T06:00:35;13.87;;;5.20;;
20711;SDS011;10517;50.742;4.224;2023-04-03T06:03:01;8.87;;;3.93;;
20711;SDS011;10517;50.742;4.224;2023-04-03T06:05:26;7.77;;;4.47;;
20711;SDS011;10517;50.742;4.224;2023-04-03T06:07:52;11.40;;;5.27;;
20711;SDS011;10517;50.742;4.224;2023-04-03T06:10:18;8.67;;;5.10;;
20711;SDS011;10517;50.742;4.224;2023-04-03T06:12:45;6.80;;;4.33;;
20711;SDS011;10517;50.742;4.224;2023-04-03T06:15:10;4.83;;;3.17;;
20711;SDS011;10517;50.742;4.224;2023-04-03T06:17:36;9.37;;;4.30;;
20711;SDS011;10517;50.742;4.224;2023-04-03T06:20:02;9.90;;;5.80;;
20711;SDS011;10517;50.742;4.224;2023-04-03T06:22:29;9.87;;;5.07;;
20711;SDS011;10517;50.742;4.224;2023-04-03T06:24:55;10.27;;;5.47;;
20711;SDS011;10517;50.742;4.224;2023-04-03T06:27:21;8.30;;;4.17;;
20711;SDS011;10517;50.742;4.224;2023-04-03T06:29:47;10.97;;;5.43;;
20711;SDS011;10517;50.742;4.224;2023-04-03T06:32:13;8.70;;;5.70;;
20711;SDS011;10517;50.742;4.224;2023-04-03T06:34:39;15.23;;;4.93;;
20711;SDS011;10517;50.742;4.224;2023-04-03T06:37:06;12.30;;;5.60;;
20711;SDS011;10517;50.742;4.224;2023-04-03T06:39:53;13.50;;;6.50;;
20711;SDS011;10517;50.742;4.224;2023-04-03T06:42:19;8.17;;;5.13;;
20711;SDS011;10517;50.742;4.224;2023-04-03T06:44:45;16.20;;;6.40;;
20711;SDS011;10517;50.742;4.224;2023-04-03T06:47:15;11.93;;;4.97;;
20711;SDS011;10517;50.742;4.224;2023-04-03T06:49:41;8.67;;;4.03;;
20711;SDS011;10517;50.742;4.224;2023-04-03T06:52:07;19.97;;;5.23;;
20711;SDS011;10517;50.742;4.224;2023-04-03T06:54:34;6.43;;;4.63;;
20711;SDS011;10517;50.742;4.224;2023-04-03T06:57:00;19.80;;;5.40;;
20711;SDS011;10517;50.742;4.224;2023-04-03T06:59:26;11.10;;;6.33;;
20711;SDS011;10517;50.742;4.224;2023-04-03T07:01:52;7.30;;;5.03;;
20711;SDS011;10517;50.742;4.224;2023-04-03T07:04:18;10.27;;;4.23;;
20711;SDS011;10517;50.742;4.224;2023-04-03T07:06:45;7.47;;;5.60;;
20711;SDS011;10517;50.742;4.224;2023-04-03T07:09:11;10.70;;;5.23;;
20711;SDS011;10517;50.742;4.224;2023-04-03T07:11:38;11.37;;;5.77;;
20711;SDS011;10517;50.742;4.224;2023-04-03T07:14:04;15.43;;;5.97;;
20711;SDS011;10517;50.742;4.224;2023-04-03T07:16:31;13.67;;;6.30;;
20711;SDS011;10517;50.742;4.224;2023-04-03T07:18:56;13.40;;;5.47;;
20711;SDS011;10517;50.742;4.224;2023-04-03T07:21:22;6.73;;;4.97;;
20711;SDS011;10517;50.742;4.224;2023-04-03T07:23:49;6.60;;;5.07;;
20711;SDS011;10517;50.742;4.224;2023-04-03T07:26:15;8.67;;;5.67;;
20711;SDS011;10517;50.742;4.224;2023-04-03T07:28:40;8.07;;;4.43;;
20711;SDS011;10517;50.742;4.224;2023-04-03T07:31:07;14.90;;;6.23;;
20711;SDS011;10517;50.742;4.224;2023-04-03T07:33:37;13.73;;;6.23;;
20711;SDS011;10517;50.742;4.224;2023-04-03T07:36:03;9.47;;;5.73;;
20711;SDS011;10517;50.742;4.224;2023-04-03T07:38:31;11.50;;;5.60;;
20711;SDS011;10517;50.742;4.224;2023-04-03T07:40:57;8.07;;;5.10;;
20711;SDS011;10517;50.742;4.224;2023-04-03T07:43:23;14.47;;;5.23;;
20711;SDS011;10517;50.742;4.224;2023-04-03T07:45:49;5.33;;;3.87;;
20711;SDS011;10517;50.742;4.224;2023-04-03T07:48:16;9.67;;;4.57;;
20711;SDS011;10517;50.742;4.224;2023-04-03T07:50:43;8.27;;;4.63;;
20711;SDS011;10517;50.742;4.224;2023-04-03T07:53:09;8.83;;;4.47;;
20711;SDS011;10517;50.742;4.224;2023-04-03T07:55:35;10.43;;;5.10;;
20711;SDS011;10517;50.742;4.224;2023-04-03T07:58:07;12.73;;;3.83;;
20711;SDS011;10517;50.742;4.224;2023-04-03T08:00:37;10.17;;;3.20;;
20711;SDS011;10517;50.742;4.224;2023-04-03T08:03:04;8.83;;;3.97;;
20711;SDS011;10517;50.742;4.224;2023-04-03T08:05:31;5.83;;;3.70;;
20711;SDS011;10517;50.742;4.224;2023-04-03T08:08:00;8.80;;;4.77;;
20711;SDS011;10517;50.742;4.224;2023-04-03T08:10:26;6.43;;;4.40;;
20711;SDS011;10517;50.742;4.224;2023-04-03T08:12:51;6.07;;;4.40;;
20711;SDS011;10517;50.742;4.224;2023-04-03T08:15:17;6.97;;;4.23;;
20711;SDS011;10517;50.742;4.224;2023-04-03T08:17:43;7.93;;;4.63;;
20711;SDS011;10517;50.742;4.224;2023-04-03T08:20:09;6.70;;;4.43;;
20711;SDS011;10517;50.742;4.224;2023-04-03T08:22:35;8.40;;;4.63;;
20711;SDS011;10517;50.742;4.224;2023-04-03T08:25:00;7.43;;;4.53;;
20711;SDS011;10517;50.742;4.224;2023-04-03T08:27:27;5.87;;;3.97;;
20711;SDS011;10517;50.742;4.224;2023-04-03T08:29:53;7.87;;;4.43;;
20711;SDS011;10517;50.742;4.224;2023-04-03T08:32:19;9.13;;;4.57;;
20711;SDS011;10517;50.742;4.224;2023-04-03T08:34:45;6.50;;;3.37;;
20711;SDS011;10517;50.742;4.224;2023-04-03T08:37:11;3.07;;;2.53;;
20711;SDS011;10517;50.742;4.224;2023-04-03T08:39:36;5.30;;;3.13;;
20711;SDS011;10517;50.742;4.224;2023-04-03T08:42:07;7.20;;;3.30;;
20711;SDS011;10517;50.742;4.224;2023-04-03T08:45:06;5.00;;;3.03;;
20711;SDS011;10517;50.742;4.224;2023-04-03T08:47:47;5.93;;;3.97;;
20711;SDS011;10517;50.742;4.224;2023-04-03T08:50:19;8.43;;;3.40;;
20711;SDS011;10517;50.742;4.224;2023-04-03T08:55:24;3.67;;;2.70;;
20711;SDS011;10517;50.742;4.224;2023-04-03T08:57:53;4.43;;;3.33;;
20711;SDS011;10517;50.742;4.224;2023-04-03T09:00:24;9.03;;;3.37;;
20711;SDS011;10517;50.742;4.224;2023-04-03T09:02:54;10.67;;;3.90;;
20711;SDS011;10517;50.742;4.224;2023-04-03T09:05:30;2.60;;;2.40;;
20711;SDS011;10517;50.742;4.224;2023-04-03T09:08:06;5.10;;;2.37;;
20711;SDS011;10517;50.742;4.224;2023-04-03T09:10:39;5.07;;;2.47;;
20711;SDS011;10517;50.742;4.224;2023-04-03T09:13:22;3.73;;;2.47;;
20711;SDS011;10517;50.742;4.224;2023-04-03T09:15:56;3.93;;;2.13;;
20711;SDS011;10517;50.742;4.224;2023-04-03T09:18:32;4.17;;;2.13;;
20711;SDS011;10517;50.742;4.224;2023-04-03T09:21:21;8.17;;;2.43;;
20711;SDS011;10517;50.742;4.224;2023-04-03T09:24:01;9.00;;;2.20;;
20711;SDS011;10517;50.742;4.224;2023-04-03T09:26:36;4.63;;;1.70;;
20711;SDS011;10517;50.742;4.224;2023-04-03T09:29:08;4.23;;;1.97;;
20711;SDS011;10517;50.742;4.224;2023-04-03T09:31:42;4.90;;;2.47;;
20711;SDS011;10517;50.742;4.224;2023-04-03T09:34:15;2.57;;;2.00;;
20711;SDS011;10517;50.742;4.224;2023-04-03T09:36:47;2.60;;;1.47;;
20711;SDS011;10517;50.742;4.224;2023-04-03T09:39:23;5.27;;;1.83;;
20711;SDS011;10517;50.742;4.224;2023-04-03T09:42:00;6.27;;;2.07;;
20711;SDS011;10517;50.742;4.224;2023-04-03T09:44:36;2.33;;;1.37;;
20711;SDS011;10517;50.742;4.224;2023-04-03T09:47:21;5.70;;;1.80;;
20711;SDS011;10517;50.742;4.224;2023-04-03T09:50:08;2.90;;;1.60;;
20711;SDS011;10517;50.742;4.224;2023-04-03T09:52:50;4.80;;;1.50;;
20711;SDS011;10517;50.742;4.224;2023-04-03T09:55:20;2.93;;;1.50;;
20711;SDS011;10517;50.742;4.224;2023-04-03T09:57:52;3.87;;;2.07;;
20711;SDS011;10517;50.742;4.224;2023-04-03T10:00:38;4.73;;;1.77;;
20711;SDS011;10517;50.742;4.224;2023-04-03T10:03:05;5.43;;;1.90;;
20711;SDS011;10517;50.742;4.224;2023-04-03T10:05:57;3.83;;;1.47;;
20711;SDS011;10517;50.742;4.224;2023-04-03T10:08:33;4.03;;;1.30;;
20711;SDS011;10517;50.742;4.224;2023-04-03T10:14:01;3.10;;;1.30;;
20711;SDS011;10517;50.742;4.224;2023-04-03T10:16:34;1.73;;;1.33;;
20711;SDS011;10517;50.742;4.224;2023-04-03T10:19:05;4.47;;;1.53;;
20711;SDS011;10517;50.742;4.224;2023-04-03T10:21:47;2.57;;;1.33;;
20711;SDS011;10517;50.742;4.224;2023-04-03T10:24:44;2.10;;;0.90;;
20711;SDS011;10517;50.742;4.224;2023-04-03T10:38:16;3.40;;;1.23;;
20711;SDS011;10517;50.742;4.224;2023-04-03T10:46:52;6.10;;;1.40;;
20711;SDS011;10517;50.742;4.224;2023-04-03T10:49:38;3.10;;;1.30;;
20711;SDS011;10517;50.742;4.224;2023-04-03T10:57:38;5.77;;;1.30;;
20711;SDS011;10517;50.742;4.224;2023-04-03T11:00:06;3.67;;;1.37;;
20711;SDS011;10517;50.742;4.224;2023-04-03T11:05:31;1.60;;;1.00;;
20711;SDS011;10517;50.742;4.224;2023-04-03T11:08:04;1.20;;;1.07;;
20711;SDS011;10517;50.742;4.224;2023-04-03T11:10:51;1.67;;;1.27;;
20711;SDS011;10517;50.742;4.224;2023-04-03T11:13:26;1.90;;;1.23;;
20711;SDS011;10517;50.742;4.224;2023-04-03T11:15:53;1.03;;;0.90;;
20711;SDS011;10517;50.742;4.224;2023-04-03T11:18:54;1.80;;;0.80;;
20711;SDS011;10517;50.742;4.224;2023-04-03T11:21:22;1.30;;;0.93;;
20711;SDS011;10517;50.742;4.224;2023-04-03T11:23:51;2.53;;;0.93;;
20711;SDS011;10517;50.742;4.224;2023-04-03T11:26:22;2.10;;;1.47;;
20711;SDS011;10517;50.742;4.224;2023-04-03T11:28:58;1.27;;;0.87;;
20711;SDS011;10517;50.742;4.224;2023-04-03T11:33:58;2.67;;;1.40;;
20711;SDS011;10517;50.742;4.224;2023-04-03T11:36:42;2.23;;;0.90;;
20711;SDS011;10517;50.742;4.224;2023-04-03T11:39:19;2.30;;;1.20;;
20711;SDS011;10517;50.742;4.224;2023-04-03T11:41:48;1.80;;;1.43;;
20711;SDS011;10517;50.742;4.224;2023-04-03T11:47:02;1.73;;;0.90;;
20711;SDS011;10517;50.742;4.224;2023-04-03T12:08:47;2.80;;;0.97;;
20711;SDS011;10517;50.742;4.224;2023-04-03T12:11:24;1.70;;;1.10;;
20711;SDS011;10517;50.742;4.224;2023-04-03T12:16:24;1.20;;;0.80;;
20711;SDS011;10517;50.742;4.224;2023-04-03T12:21:21;2.33;;;0.50;;
20711;SDS011;10517;50.742;4.224;2023-04-03T12:24:02;1.50;;;0.70;;
20711;SDS011;10517;50.742;4.224;2023-04-03T12:26:51;2.42;;;0.85;;
20711;SDS011;10517;50.742;4.224;2023-04-03T12:34:44;1.10;;;1.00;;
20711;SDS011;10517;50.742;4.224;2023-04-03T12:48:25;2.40;;;1.13;;
20711;SDS011;10517;50.742;4.224;2023-04-03T12:50:52;3.08;;;0.98;;
20711;SDS011;10517;50.742;4.224;2023-04-03T12:53:33;3.60;;;1.02;;
20711;SDS011;10517;50.742;4.224;2023-04-03T12:58:48;5.77;;;1.63;;
20711;SDS011;10517;50.742;4.224;2023-04-03T13:01:20;2.83;;;0.75;;
20711;SDS011;10517;50.742;4.224;2023-04-03T13:03:49;3.83;;;1.08;;
20711;SDS011;10517;50.742;4.224;2023-04-03T13:07:00;2.22;;;1.10;;
20711;SDS011;10517;50.742;4.224;2023-04-03T13:09:18;2.22;;;0.98;;
20711;SDS011;10517;50.742;4.224;2023-04-03T13:11:54;2.53;;;0.90;;
20711;SDS011;10517;50.742;4.224;2023-04-03T13:14:27;2.95;;;0.90;;
20711;SDS011;10517;50.742;4.224;2023-04-03T13:19:31;1.35;;;0.80;;
20711;SDS011;10517;50.742;4.224;2023-04-03T13:22:06;8.52;;;1.05;;
20711;SDS011;10517;50.742;4.224;2023-04-03T13:24:50;2.38;;;0.90;;
20711;SDS011;10517;50.742;4.224;2023-04-03T13:27:17;0.82;;;0.73;;
20711;SDS011;10517;50.742;4.224;2023-04-03T13:29:43;2.75;;;1.13;;
20711;SDS011;10517;50.742;4.224;2023-04-03T13:32:17;3.60;;;0.70;;
20711;SDS011;10517;50.742;4.224;2023-04-03T13:34:45;2.08;;;0.98;;
20711;SDS011;10517;50.742;4.224;2023-04-03T13:37:22;2.47;;;0.80;;
20711;SDS011;10517;50.742;4.224;2023-04-03T13:40:24;2.17;;;0.98;;
20711;SDS011;10517;50.742;4.224;2023-04-03T13:42:42;1.67;;;0.90;;
20711;SDS011;10517;50.742;4.224;2023-04-03T13:47:43;1.95;;;0.73;;
20711;SDS011;10517;50.742;4.224;2023-04-03T13:52:46;2.58;;;0.77;;
20711;SDS011;10517;50.742;4.224;2023-04-03T13:57:50;2.17;;;0.63;;
20711;SDS011;10517;50.742;4.224;2023-04-03T14:00:21;2.42;;;0.93;;
20711;SDS011;10517;50.742;4.224;2023-04-03T14:02:54;4.47;;;1.38;;
20711;SDS011;10517;50.742;4.224;2023-04-03T14:05:21;0.80;;;0.63;;
20711;SDS011;10517;50.742;4.224;2023-04-03T14:07:48;1.08;;;0.75;;
20711;SDS011;10517;50.742;4.224;2023-04-03T14:10:14;2.15;;;0.70;;
20711;SDS011;10517;50.742;4.224;2023-04-03T14:12:39;1.17;;;0.52;;
20711;SDS011;10517;50.742;4.224;2023-04-03T14:15:27;0.77;;;0.50;;
20711;SDS011;10517;50.742;4.224;2023-04-03T14:17:53;4.50;;;0.93;;
20711;SDS011;10517;50.742;4.224;2023-04-03T14:20:21;1.48;;;0.60;;
20711;SDS011;10517;50.742;4.224;2023-04-03T14:22:49;1.35;;;0.85;;
20711;SDS011;10517;50.742;4.224;2023-04-03T14:25:16;1.77;;;0.70;;
20711;SDS011;10517;50.742;4.224;2023-04-03T14:27:46;1.52;;;0.60;;
20711;SDS011;10517;50.742;4.224;2023-04-03T14:30:16;3.85;;;1.00;;
20711;SDS011;10517;50.742;4.224;2023-04-03T14:32:45;1.58;;;0.90;;
20711;SDS011;10517;50.742;4.224;2023-04-03T14:35:12;1.50;;;0.77;;
20711;SDS011;10517;50.742;4.224;2023-04-03T14:37:38;2.45;;;1.10;;
20711;SDS011;10517;50.742;4.224;2023-04-03T14:40:04;2.40;;;1.20;;
20711;SDS011;10517;50.742;4.224;2023-04-03T14:42:32;1.20;;;0.75;;
20711;SDS011;10517;50.742;4.224;2023-04-03T14:45:01;1.75;;;0.95;;
20711;SDS011;10517;50.742;4.224;2023-04-03T14:47:29;1.40;;;0.80;;
20711;SDS011;10517;50.742;4.224;2023-04-03T14:49:55;2.10;;;0.88;;
20711;SDS011;10517;50.742;4.224;2023-04-03T14:52:26;3.63;;;1.33;;
20711;SDS011;10517;50.742;4.224;2023-04-03T14:54:55;2.78;;;0.95;;
20711;SDS011;10517;50.742;4.224;2023-04-03T14:57:22;0.93;;;0.90;;
20711;SDS011;10517;50.742;4.224;2023-04-03T14:59:50;1.95;;;1.15;;
20711;SDS011;10517;50.742;4.224;2023-04-03T15:02:26;3.75;;;0.98;;
20711;SDS011;10517;50.742;4.224;2023-04-03T15:04:56;1.73;;;1.00;;
20711;SDS011;10517;50.742;4.224;2023-04-03T15:07:23;2.05;;;0.95;;
20711;SDS011;10517;50.742;4.224;2023-04-03T15:09:51;1.10;;;0.80;;
20711;SDS011;10517;50.742;4.224;2023-04-03T15:12:17;1.27;;;1.00;;
20711;SDS011;10517;50.742;4.224;2023-04-03T15:14:42;3.08;;;1.00;;
20711;SDS011;10517;50.742;4.224;2023-04-03T15:17:10;1.98;;;0.80;;
20711;SDS011;10517;50.742;4.224;2023-04-03T15:19:40;1.75;;;0.90;;
20711;SDS011;10517;50.742;4.224;2023-04-03T15:22:06;4.43;;;1.00;;
20711;SDS011;10517;50.742;4.224;2023-04-03T15:24:33;2.00;;;0.70;;
20711;SDS011;10517;50.742;4.224;2023-04-03T15:26:59;1.70;;;0.85;;
20711;SDS011;10517;50.742;4.224;2023-04-03T15:29:26;1.13;;;0.80;;
20711;SDS011;10517;50.742;4.224;2023-04-03T15:31:52;1.17;;;0.90;;
20711;SDS011;10517;50.742;4.224;2023-04-03T15:34:18;0.88;;;0.80;;
20711;SDS011;10517;50.742;4.224;2023-04-03T15:36:44;2.33;;;1.02;;
20711;SDS011;10517;50.742;4.224;2023-04-03T15:39:09;2.80;;;1.13;;
20711;SDS011;10517;50.742;4.224;2023-04-03T15:41:35;0.73;;;0.73;;
20711;SDS011;10517;50.742;4.224;2023-04-03T15:44:00;2.88;;;1.23;;
20711;SDS011;10517;50.742;4.224;2023-04-03T15:46:26;4.68;;;1.40;;
20711;SDS011;10517;50.742;4.224;2023-04-03T15:48:52;1.27;;;0.80;;
20711;SDS011;10517;50.742;4.224;2023-04-03T15:51:17;0.85;;;0.73;;
20711;SDS011;10517;50.742;4.224;2023-04-03T15:53:43;1.65;;;1.20;;
20711;SDS011;10517;50.742;4.224;2023-04-03T15:56:08;1.35;;;0.82;;
20711;SDS011;10517;50.742;4.224;2023-04-03T15:58:34;2.28;;;1.10;;
20711;SDS011;10517;50.742;4.224;2023-04-03T16:01:00;4.65;;;0.93;;
20711;SDS011;10517;50.742;4.224;2023-04-03T16:03:26;1.60;;;0.70;;
20711;SDS011;10517;50.742;4.224;2023-04-03T16:05:52;1.50;;;0.88;;
20711;SDS011;10517;50.742;4.224;2023-04-03T16:08:18;2.42;;;1.10;;
20711;SDS011;10517;50.742;4.224;2023-04-03T16:10:45;1.42;;;1.15;;
20711;SDS011;10517;50.742;4.224;2023-04-03T16:13:11;1.10;;;1.00;;
20711;SDS011;10517;50.742;4.224;2023-04-03T16:15:37;1.15;;;1.05;;
20711;SDS011;10517;50.742;4.224;2023-04-03T16:18:04;2.72;;;1.10;;
20711;SDS011;10517;50.742;4.224;2023-04-03T16:20:30;2.10;;;0.90;;
20711;SDS011;10517;50.742;4.224;2023-04-03T16:22:57;0.90;;;0.70;;
20711;SDS011;10517;50.742;4.224;2023-04-03T16:25:24;1.80;;;1.25;;
20711;SDS011;10517;50.742;4.224;2023-04-03T16:27:50;2.35;;;1.40;;
20711;SDS011;10517;50.742;4.224;2023-04-03T16:30:15;1.00;;;0.90;;
20711;SDS011;10517;50.742;4.224;2023-04-03T16:32:41;1.15;;;0.90;;